Newport Municipal Airport
KONP : now visible

Airfield :











YOU CAN JOIN US ON...

 
LOGIN :

Register | Disclaimer

   EN    FR    IT 

 









Legend :    VFR   Marginal VFR   IFR   Intensive IFR   Very Intensive IFR
Visi :
Ceiling :
>= 8 km
>= 3000ft
5 to 8 km
1000 to 3000 ft
1500m to 5 km
500 to 1000 ft
800 to 1500m
200 to 500 ft
< 800m
< 200 ft
Symbols :   Thunderstorms  Fog  Heavy snow  Heavy precipitations  Wind > 20 kt






- Airport Elevation : 160 ft


KONP - Newport Municipal

CURRENT METAR :
  • 280155Z AUTO 35011KT 10SM CLR 16/12 A3002 RMK AO2

EXPIRED METARs :
  • 280135Z AUTO 34016G20KT 10SM CLR 16/12 A3002 RMK AO2
  • 280115Z AUTO 34015G19KT 10SM CLR 16/12 A3003 RMK AO2
  • 280055Z AUTO 34013KT 10SM CLR 17/12 A3003 RMK AO2
  • 280035Z AUTO 34012KT 10SM CLR 17/12 A3003 RMK AO2
  • 280015Z AUTO 34012KT 10SM CLR 17/12 A3004 RMK AO2
  • 272355Z AUTO 34014G19KT 10SM CLR 17/12 A3005 RMK AO2
  • 272335Z AUTO 35013G19KT 10SM CLR 17/12 A3005 RMK AO2
  • 272315Z AUTO 35013G19KT 10SM CLR 17/12 A3006 RMK AO2

TAF KONP
Valid from the 28 at 00:00 until the 29 at 00:00 UTC


272320Z 2800/2824 34015G22KT P6SM FEW250
FM280200 35010KT P6SM SCT250
FM280400 36005KT P6SM BKN250
FM280900 02005KT P6SM SCT250
FM281900 32009KT P6SM SCT250
KZSE FIR / North America



MET'MAP, your aeronautical weather chart ! - Copyright ORBIFLY December 2007 - Disclaimer

ORBIFLY MET'MAP TEAM :

Programming & Development : Alexandra Zaïnal
Concept & original design : Baudouin d'Aumeries
Assistance for programming : Marc-Olivier Méhu
Technical & hardware support : Manuel Goepfert

Contact : metmap@orbifly.com




SOURCES & CREDITS :

   NOAA       Earth
Advisory